Highgate, Vermont
Current Conditions -  °F | °C
As of 4:15 AM on Wednesday 22 Oct 2014 (Local Time) from KFSO Reporting Station
Overcast Overcast  
Wind Chill: 40°   Ceiling: 4800
Heat Index: 44°   Visibility: 7mi
Dew Point: 43°   Wind: 6mph
Humidity: 97%   Direction: 350°N
Pressure: 30.13"   Gusts: NA
Location:  44.958°N, 72.9958°W
Report Text: KFSO 220815Z AUTO 35005KT 7SM SCT003 BKN048 OVC080 07/06 A3013 RMK AO2 T00650061
Loading
Personal Weather Stations






























Interactive Weather Map
Tropical Storm Tracking
New forecast layout! Learn more

10-Day Weather Forecast

Advertisements
Track Severe Weather on mobile